createdAt,value
2019-05-18T00:04:21.277Z,53995.91
2019-05-18T00:09:39.935Z,54030.22
2019-05-18T00:14:58.573Z,54021.14
2019-05-18T00:20:17.215Z,53999.95
2019-05-18T00:25:37.044Z,54008.02
2019-05-18T00:30:55.740Z,54030.22
2019-05-18T00:36:14.618Z,53993.89
2019-05-18T00:41:33.255Z,53995.91
2019-05-18T00:46:51.927Z,54034.26
2019-05-18T00:52:10.579Z,54027.20
2019-05-18T00:57:29.224Z,54022.15
2019-05-18T01:02:47.942Z,54008.02
2019-05-18T01:08:06.986Z,54039.30
2019-05-18T01:13:25.660Z,54007.01
2019-05-18T01:18:44.592Z,53995.91
2019-05-18T01:24:03.231Z,53992.88
2019-05-18T01:29:21.877Z,54017.10
2019-05-18T01:34:40.604Z,53995.91
2019-05-18T01:39:59.459Z,54025.18
2019-05-18T01:45:18.467Z,54008.02
2019-05-18T01:50:37.039Z,53995.91
2019-05-18T01:55:55.756Z,54043.34
2019-05-18T02:01:14.523Z,54011.05
2019-05-18T02:06:33.151Z,54038.30
2019-05-18T02:11:51.829Z,54013.06
2019-05-18T02:17:10.482Z,54016.09
2019-05-18T02:22:29.044Z,54001.96
2019-05-18T02:27:47.647Z,54025.18
2019-05-18T02:33:06.307Z,54046.37
2019-05-18T02:38:24.969Z,54030.22
2019-05-18T02:43:43.890Z,54062.52
2019-05-18T02:49:02.565Z,54041.32
2019-05-18T02:54:21.530Z,54013.06
2019-05-18T02:59:40.179Z,54021.14
2019-05-18T03:04:58.889Z,54042.34
2019-05-18T03:10:17.991Z,53994.90
2019-05-18T03:15:36.594Z,54007.01
2019-05-18T03:20:55.239Z,54000.95
2019-05-18T03:26:13.882Z,54001.96
2019-05-18T03:31:32.472Z,54038.30
2019-05-18T03:36:51.106Z,54012.05
2019-05-18T03:42:09.793Z,54028.20
2019-05-18T03:47:28.418Z,54021.14
2019-05-18T03:52:47.059Z,54038.30
2019-05-18T03:58:05.630Z,54010.04
2019-05-18T04:03:24.300Z,54029.21
2019-05-18T04:08:42.853Z,54032.24
2019-05-18T04:14:01.528Z,54057.47
2019-05-18T04:19:20.164Z,54045.36
2019-05-18T04:24:38.667Z,54041.32
2019-05-18T04:29:57.321Z,54060.50
2019-05-18T04:35:15.976Z,54045.36
2019-05-18T04:40:35.004Z,54062.52
2019-05-18T04:45:53.739Z,54078.67
2019-05-18T04:51:12.382Z,54077.66
2019-05-18T04:56:31.047Z,54065.55
2019-05-18T05:01:49.813Z,54051.42
2019-05-18T05:07:08.499Z,54051.42
2019-05-18T05:12:27.140Z,54063.53
2019-05-18T05:17:45.711Z,54082.71
2019-05-18T05:23:04.348Z,54090.78
2019-05-18T05:28:22.908Z,54050.41
2019-05-18T05:33:41.536Z,54033.25
2019-05-18T05:39:01.825Z,54046.37
2019-05-18T05:44:20.535Z,54048.39
2019-05-18T05:49:39.180Z,54069.58
2019-05-18T05:54:57.879Z,54051.42
2019-05-18T06:00:17.026Z,54051.42
2019-05-18T06:05:35.676Z,54050.41
2019-05-18T06:10:54.402Z,54081.70
2019-05-18T06:16:13.034Z,54032.24
2019-05-18T06:21:31.598Z,54066.56
2019-05-18T06:26:50.539Z,54079.68
2019-05-18T06:32:09.184Z,54041.32
2019-05-18T06:37:28.075Z,54047.38
2019-05-18T06:42:46.643Z,54071.60
2019-05-18T06:48:05.274Z,54056.46
2019-05-18T06:53:23.920Z,54072.61
2019-05-18T06:58:43.058Z,54070.59
2019-05-18T07:04:01.733Z,54100.87
2019-05-18T07:09:20.363Z,54043.34
2019-05-18T07:14:39.017Z,54083.71
2019-05-18T07:19:57.662Z,54062.52
2019-05-18T07:25:16.810Z,54073.62
2019-05-18T07:30:35.373Z,54039.30
2019-05-18T07:35:53.935Z,54034.26
2019-05-18T07:41:12.513Z,54081.70
2019-05-18T07:46:31.103Z,54061.51
2019-05-18T07:51:49.745Z,54062.52
2019-05-18T07:57:08.393Z,54053.43
2019-05-18T08:02:26.954Z,54072.61
2019-05-18T08:07:45.615Z,54079.68
2019-05-18T08:13:05.236Z,54074.63
2019-05-18T08:18:24.260Z,54101.88
2019-05-18T08:23:42.896Z,54075.64
2019-05-18T08:29:01.741Z,54068.57
2019-05-18T08:34:20.402Z,54105.92
2019-05-18T08:39:39.149Z,54059.49
2019-05-18T08:44:57.720Z,54102.89
2019-05-18T08:50:16.692Z,54039.30
2019-05-18T08:55:35.413Z,54032.24
2019-05-18T09:00:54.149Z,54034.26
2019-05-18T09:06:12.795Z,54060.50
2019-05-18T09:11:31.469Z,54062.52
2019-05-18T09:16:50.045Z,54049.40
2019-05-18T09:22:22.555Z,54064.54
2019-05-18T09:27:28.996Z,54057.47
2019-05-18T09:32:47.652Z,54056.46
2019-05-18T09:38:06.289Z,54084.72
2019-05-18T09:43:25.047Z,54082.71
2019-05-18T09:48:43.702Z,54067.57
2019-05-18T09:54:02.422Z,54076.65
2019-05-18T09:59:21.059Z,54064.54
2019-05-18T10:04:39.730Z,54064.54
2019-05-18T10:09:58.397Z,54095.82
2019-05-18T10:15:17.138Z,54052.43
2019-05-18T10:20:35.774Z,54052.43
2019-05-18T10:25:54.340Z,54064.54
2019-05-18T10:31:13.058Z,54074.63
2019-05-18T10:36:31.720Z,54106.93
2019-05-18T10:41:50.352Z,54083.71
2019-05-18T10:47:09.535Z,54096.84
2019-05-18T10:52:28.178Z,54074.63
2019-05-18T10:57:46.897Z,54070.59
2019-05-18T11:03:05.611Z,54077.66
2019-05-18T11:08:24.286Z,54078.67
2019-05-18T11:13:42.926Z,54043.34
2019-05-18T11:19:01.574Z,54092.80
2019-05-18T11:24:20.283Z,54059.49
2019-05-18T11:29:38.922Z,54094.82
2019-05-18T11:34:57.570Z,54117.02
2019-05-18T11:40:16.622Z,54066.56
2019-05-18T11:45:35.266Z,54067.57
2019-05-18T11:50:53.920Z,54071.60
2019-05-18T11:56:12.569Z,54094.82
2019-05-18T12:01:31.377Z,54077.66
2019-05-18T12:06:49.965Z,54087.75
2019-05-18T12:12:08.607Z,54059.49
2019-05-18T12:17:27.260Z,54070.59
2019-05-18T12:22:45.961Z,54092.80
2019-05-18T12:28:04.679Z,54045.36
2019-05-18T12:33:23.324Z,54092.80
2019-05-18T12:38:41.970Z,54098.86
2019-05-18T12:44:00.614Z,54102.89
2019-05-18T12:49:19.270Z,54076.65
2019-05-18T12:54:46.561Z,54075.64
2019-05-18T13:00:00.155Z,54077.66
2019-05-18T13:05:19.922Z,54106.93
2019-05-18T13:10:39.390Z,54058.48
2019-05-18T13:15:58.090Z,54082.71
2019-05-18T13:21:17.021Z,54084.72
2019-05-18T13:26:35.670Z,54100.87
2019-05-18T13:31:54.235Z,54077.66
2019-05-18T13:37:12.868Z,54079.68
2019-05-18T13:42:31.513Z,54082.71
2019-05-18T13:47:50.167Z,54080.68
2019-05-18T13:53:08.817Z,54103.90
2019-05-18T13:58:27.466Z,54088.76
2019-05-18T14:03:46.118Z,54094.82
2019-05-18T14:09:05.579Z,54071.60
2019-05-18T14:14:24.192Z,54077.66
2019-05-18T14:19:43.163Z,54084.72
2019-05-18T14:25:10.534Z,54088.76
2019-05-18T14:30:23.929Z,54087.75
2019-05-18T14:35:51.386Z,54108.95
2019-05-18T14:41:10.725Z,54076.65
2019-05-18T14:46:29.363Z,54066.56
2019-05-18T14:51:47.996Z,54078.67
2019-05-18T14:57:06.558Z,54101.88
2019-05-18T15:02:31.086Z,54058.48
2019-05-18T15:07:49.988Z,54081.70
2019-05-18T15:13:08.732Z,54082.71
2019-05-18T15:18:27.367Z,54085.73
2019-05-18T15:23:46.469Z,54093.81
2019-05-18T15:29:05.027Z,54072.61
2019-05-18T15:34:24.045Z,54049.40
2019-05-18T15:39:42.700Z,54093.81
2019-05-18T15:45:01.568Z,54099.86
2019-05-18T15:50:20.434Z,54096.84
2019-05-18T15:56:34.052Z,54081.70
2019-05-18T16:02:50.095Z,54066.56
2019-05-18T16:08:08.707Z,54072.61
2019-05-18T16:13:27.397Z,54053.43
2019-05-18T16:18:46.323Z,54119.04
2019-05-18T16:24:05.077Z,54073.62
2019-05-18T16:29:23.738Z,54072.61
2019-05-18T16:34:42.376Z,54084.72
2019-05-18T16:40:01.082Z,54060.50
2019-05-18T16:45:20.321Z,54085.73
2019-05-18T16:50:39.010Z,54073.62
2019-05-18T16:55:57.866Z,54093.81
2019-05-18T17:01:16.669Z,54061.51
2019-05-18T17:06:35.315Z,54089.77
2019-05-18T17:11:53.970Z,54041.32
2019-05-18T17:17:12.698Z,54078.67
2019-05-18T17:22:31.270Z,54082.71
2019-05-18T17:27:49.929Z,54089.77
2019-05-18T17:33:08.565Z,54087.75
2019-05-18T17:38:27.191Z,54074.63
2019-05-18T17:43:45.841Z,54099.86
2019-05-18T17:49:05.897Z,54104.91
2019-05-18T17:54:24.455Z,54085.73
2019-05-18T17:59:43.090Z,54088.76
2019-05-18T18:05:01.747Z,54041.32
2019-05-18T18:10:21.186Z,54069.58
2019-05-18T18:15:39.841Z,54049.40
2019-05-18T18:20:58.483Z,54083.71
2019-05-18T18:26:17.119Z,54071.60
2019-05-18T18:31:35.757Z,54065.55
2019-05-18T18:36:54.384Z,54058.48
2019-05-18T18:42:13.100Z,54110.96
2019-05-18T18:47:31.752Z,54074.63
2019-05-18T18:52:50.342Z,54061.51
2019-05-18T18:58:08.916Z,54056.46
2019-05-18T19:03:27.491Z,54042.34
2019-05-18T19:08:46.131Z,54095.82
2019-05-18T19:14:05.568Z,54048.39
2019-05-18T19:19:24.196Z,54066.56
2019-05-18T19:24:42.813Z,54062.52
2019-05-18T19:30:03.520Z,54049.40
2019-05-18T19:35:22.248Z,54058.48
2019-05-18T19:40:40.963Z,54046.37
2019-05-18T19:45:59.607Z,54049.40
2019-05-18T19:51:18.355Z,54059.49
2019-05-18T19:56:41.986Z,54072.61
2019-05-18T20:01:58.931Z,54044.35
2019-05-18T20:07:20.039Z,54089.77
2019-05-18T20:12:38.739Z,54053.43
2019-05-18T20:17:57.813Z,54041.32
2019-05-18T20:23:16.446Z,54047.38
2019-05-18T20:28:35.088Z,54037.29
2019-05-18T20:33:53.967Z,54038.30
2019-05-18T20:39:12.628Z,54064.54
2019-05-18T20:44:31.642Z,54031.23
2019-05-18T20:49:50.290Z,54042.34
2019-05-18T20:55:09.135Z,54035.27
2019-05-18T21:00:27.811Z,54061.51
2019-05-18T21:05:46.441Z,54021.14
2019-05-18T21:11:05.782Z,54077.66
2019-05-18T21:16:24.441Z,54068.57
2019-05-18T21:21:43.099Z,54060.50
2019-05-18T21:27:01.778Z,54059.49
2019-05-18T21:32:20.415Z,54061.51
2019-05-18T21:37:39.069Z,54061.51
2019-05-18T21:42:57.702Z,54053.43
2019-05-18T21:48:16.368Z,54097.84
2019-05-18T21:53:35.020Z,54064.54
2019-05-18T21:58:53.671Z,54072.61
2019-05-18T22:04:12.409Z,54038.30
2019-05-18T22:09:31.148Z,54057.47
2019-05-18T22:14:49.812Z,54081.70
2019-05-18T22:20:08.616Z,54038.30
2019-05-18T22:25:27.404Z,54043.34
2019-05-18T22:30:46.468Z,54040.31
2019-05-18T22:36:05.123Z,54055.45
2019-05-18T22:41:23.806Z,54050.41
2019-05-18T22:46:42.378Z,54057.47
2019-05-18T22:52:01.013Z,54048.39
2019-05-18T22:57:19.747Z,54048.39
2019-05-18T23:02:38.392Z,54076.65
2019-05-18T23:07:57.042Z,54064.54
2019-05-18T23:13:15.628Z,54031.23
2019-05-18T23:18:34.276Z,54090.78
2019-05-18T23:23:52.804Z,54071.60
2019-05-18T23:29:11.757Z,54039.30
2019-05-18T23:34:30.332Z,54047.38
2019-05-18T23:39:48.986Z,54059.49
2019-05-18T23:45:07.830Z,54048.39
2019-05-18T23:50:26.501Z,54036.28
2019-05-18T23:55:45.156Z,54044.35
